Time;durP1;ratioP1;P1;durP2;ratioP2;P2;SDS_P1;SDS_P2;PMS_P1;PMS_P2;Temp;Humidity;BMP_temperature;BMP_pressure;BME280_temperature;BME280_humidity;BME280_pressure;Samples;Min_cycle;Max_cycle;Signal;HPM_P1;HPM_P2
2021/08/26 00:00:18;;;;;;;2.90;2.60;;;;;;;13.86;100.00;100050.38;5063792;28;20198;-73
2021/08/26 00:05:48;;;;;;;3.03;2.50;;;;;;;13.86;100.00;100040.75;5068937;28;20284;-72
2021/08/26 00:08:16;;;;;;;2.60;2.33;;;;;;;13.88;100.00;100038.03;5064505;28;20210;-72
2021/08/26 00:10:44;;;;;;;2.57;2.37;;;;;;;13.89;100.00;100042.38;5057489;28;20302;-72
2021/08/26 00:13:11;;;;;;;4.03;2.70;;;;;;;13.92;100.00;100044.84;5060510;28;20209;-73
2021/08/26 00:15:41;;;;;;;2.50;2.20;;;;;;;13.89;100.00;100040.59;5060346;28;20210;-73
2021/08/26 00:18:08;;;;;;;2.50;2.30;;;;;;;13.90;100.00;100038.84;5055540;28;20758;-72
2021/08/26 00:20:35;;;;;;;2.83;2.40;;;;;;;13.90;100.00;100030.97;5071504;28;20225;-73
2021/08/26 00:23:01;;;;;;;3.60;2.37;;;;;;;13.92;100.00;100027.34;5056082;28;20203;-73
2021/08/26 00:25:28;;;;;;;2.90;2.40;;;;;;;13.90;100.00;100033.59;5065415;28;20242;-72
2021/08/26 00:27:55;;;;;;;2.60;2.40;;;;;;;13.91;100.00;100030.91;5066835;28;20226;-73
2021/08/26 00:30:21;;;;;;;2.30;2.10;;;;;;;13.89;100.00;100022.25;5063837;28;20227;-72
2021/08/26 00:32:47;;;;;;;2.77;2.50;;;;;;;13.87;100.00;100018.00;5054165;28;20702;-72
2021/08/26 00:35:16;;;;;;;2.40;2.20;;;;;;;13.88;100.00;100017.94;5066249;28;20289;-73
2021/08/26 00:37:42;;;;;;;2.93;2.63;;;;;;;13.89;100.00;100010.91;5057638;28;20447;-73
2021/08/26 00:40:09;;;;;;;3.43;2.27;;;;;;;13.88;100.00;100010.06;5066536;28;20194;-72
2021/08/26 00:42:36;;;;;;;2.37;2.13;;;;;;;13.85;100.00;100018.09;5069598;28;20289;-72
2021/08/26 00:45:03;;;;;;;2.50;2.30;;;;;;;13.84;100.00;100013.75;5059929;28;20196;-72
2021/08/26 00:47:30;;;;;;;2.37;2.17;;;;;;;13.84;100.00;100016.38;5062191;28;20234;-73
2021/08/26 00:49:57;;;;;;;2.20;2.00;;;;;;;13.82;100.00;100016.47;5067528;28;20212;-72
2021/08/26 00:52:25;;;;;;;2.70;1.90;;;;;;;13.80;100.00;100014.84;5073320;28;20638;-73
2021/08/26 00:54:52;;;;;;;1.87;1.67;;;;;;;13.79;100.00;100010.50;5066899;28;20190;-73
2021/08/26 00:57:19;;;;;;;2.60;1.87;;;;;;;13.80;100.00;100014.84;5055771;28;20215;-72
2021/08/26 00:59:45;;;;;;;2.63;1.80;;;;;;;13.79;100.00;100015.75;5065618;28;20201;-73
2021/08/26 01:02:17;;;;;;;1.83;1.73;;;;;;;13.74;100.00;100005.50;5061899;28;20286;-73
2021/08/26 01:04:49;;;;;;;2.20;1.90;;;;;;;13.75;100.00;100014.22;5059486;28;20198;-73
2021/08/26 01:07:26;;;;;;;2.20;1.80;;;;;;;13.72;100.00;100010.00;5063636;28;20222;-72
2021/08/26 01:09:59;;;;;;;1.90;1.70;;;;;;;13.66;100.00;100004.19;5059661;28;20198;-73
2021/08/26 01:12:28;;;;;;;2.30;1.73;;;;;;;13.59;100.00;100003.63;5058682;28;20211;-72
2021/08/26 01:14:56;;;;;;;4.20;2.00;;;;;;;13.56;100.00;100009.00;5064857;28;20697;-72
2021/08/26 01:17:25;;;;;;;2.33;1.83;;;;;;;13.52;100.00;100007.47;5062584;28;20233;-72
2021/08/26 01:19:53;;;;;;;2.10;1.90;;;;;;;13.50;100.00;100009.31;5068105;28;20205;-73
2021/08/26 01:22:21;;;;;;;3.20;1.87;;;;;;;13.49;100.00;100003.25;5068356;28;20198;-72
2021/08/26 01:24:54;;;;;;;2.83;1.90;;;;;;;13.48;100.00;100003.31;5071996;28;20207;-72
2021/08/26 01:27:23;;;;;;;2.03;1.83;;;;;;;13.43;100.00;99991.28;5066997;28;20725;-73
2021/08/26 01:29:50;;;;;;;2.17;1.70;;;;;;;13.35;100.00;99992.56;5060523;28;20216;-72
2021/08/26 01:32:18;;;;;;;2.30;1.90;;;;;;;13.30;100.00;99999.75;5060381;28;20219;-72
2021/08/26 01:34:45;;;;;;;4.60;1.90;;;;;;;13.22;100.00;99994.88;5069272;28;20568;-72
2021/08/26 01:37:11;;;;;;;2.07;1.40;;;;;;;13.16;100.00;99985.56;5071247;28;20218;-72
2021/08/26 01:39:45;;;;;;;4.23;1.73;;;;;;;13.10;100.00;99987.59;5071223;28;20199;-72
2021/08/26 01:42:13;;;;;;;4.10;2.00;;;;;;;13.05;100.00;99988.69;5063867;28;20675;-72
2021/08/26 01:44:41;;;;;;;3.00;1.53;;;;;;;12.97;100.00;99990.78;5060461;28;20197;-73
2021/08/26 01:47:09;;;;;;;2.20;1.73;;;;;;;12.90;100.00;99978.06;5063278;28;20222;-73
2021/08/26 01:49:36;;;;;;;3.57;1.77;;;;;;;12.84;100.00;99976.56;5065706;28;20596;-72
2021/08/26 01:52:02;;;;;;;2.33;1.80;;;;;;;12.80;100.00;99970.63;5061095;28;20574;-73
2021/08/26 01:54:29;;;;;;;3.20;1.97;;;;;;;12.81;100.00;99968.88;5059745;28;20206;-72
2021/08/26 01:56:55;;;;;;;3.50;2.27;;;;;;;12.76;100.00;99963.00;5063534;28;20408;-73
2021/08/26 01:59:22;;;;;;;4.50;2.00;;;;;;;12.68;100.00;99964.22;5066375;28;20192;-72
2021/08/26 02:01:50;;;;;;;5.63;2.13;;;;;;;12.61;100.00;99973.25;5067981;28;20205;-72
2021/08/26 02:04:16;;;;;;;3.07;1.80;;;;;;;12.56;100.00;99975.22;5058562;28;20217;-72
2021/08/26 02:06:43;;;;;;;5.87;2.17;;;;;;;12.50;100.00;99965.91;5074695;28;20269;-72
2021/08/26 02:09:09;;;;;;;5.37;2.17;;;;;;;12.52;100.00;99970.19;5061492;28;20206;-73
2021/08/26 02:11:35;;;;;;;3.30;2.03;;;;;;;12.55;100.00;99964.84;5069367;28;20499;-72
2021/08/26 02:14:02;;;;;;;4.10;2.13;;;;;;;12.63;100.00;99971.41;5062464;28;20204;-72
2021/08/26 02:16:28;;;;;;;2.97;2.10;;;;;;;12.67;100.00;99965.13;5068384;28;20230;-73
2021/08/26 02:18:56;;;;;;;4.93;2.33;;;;;;;12.71;100.00;99962.38;5078243;28;20197;-73
2021/08/26 02:21:22;;;;;;;5.07;2.20;;;;;;;12.73;100.00;99969.22;5060755;28;20202;-73
2021/08/26 02:23:53;;;;;;;5.00;2.30;;;;;;;12.76;100.00;99963.84;5074722;28;20524;-73
2021/08/26 02:26:19;;;;;;;5.50;2.40;;;;;;;12.79;100.00;99960.25;5073047;28;20205;-73
2021/08/26 02:28:45;;;;;;;5.97;2.20;;;;;;;12.83;100.00;99962.66;5061313;28;20759;-72
2021/08/26 02:31:12;;;;;;;3.80;2.00;;;;;;;12.86;100.00;99959.06;5066956;28;20225;-72
2021/08/26 02:33:38;;;;;;;4.63;2.40;;;;;;;12.86;100.00;99961.69;5063888;28;20198;-72
2021/08/26 02:36:06;;;;;;;4.10;2.47;;;;;;;12.87;100.00;99959.00;5065199;28;20198;-73
2021/08/26 02:38:32;;;;;;;3.63;2.43;;;;;;;12.90;100.00;99959.75;5065381;28;20225;-72
2021/08/26 02:40:59;;;;;;;4.00;2.83;;;;;;;12.91;100.00;99957.09;5060857;28;20211;-73
2021/08/26 02:43:25;;;;;;;9.53;2.87;;;;;;;12.91;100.00;99954.47;5062079;28;20203;-73
2021/08/26 02:45:52;;;;;;;5.07;2.50;;;;;;;12.91;100.00;99948.38;5065304;28;20234;-72
2021/08/26 02:48:18;;;;;;;3.10;2.40;;;;;;;12.82;100.00;99947.88;5063972;28;20229;-72
2021/08/26 02:50:44;;;;;;;6.33;3.20;;;;;;;12.72;100.00;99941.38;5064833;28;20640;-72
2021/08/26 02:53:12;;;;;;;5.37;2.60;;;;;;;12.68;100.00;99935.44;5064753;28;20213;-72
2021/08/26 02:55:39;;;;;;;8.27;2.93;;;;;;;12.62;100.00;99924.41;5067782;28;20198;-72
2021/08/26 02:58:05;;;;;;;8.27;2.90;;;;;;;12.54;100.00;99924.78;5074220;28;20224;-72
2021/08/26 03:00:32;;;;;;;6.80;2.73;;;;;;;12.49;100.00;99934.59;5074879;28;20202;-72
2021/08/26 03:02:58;;;;;;;7.07;2.70;;;;;;;12.52;100.00;99946.66;5061214;28;20703;-72
2021/08/26 03:05:24;;;;;;;5.97;3.20;;;;;;;12.58;100.00;99951.63;5068446;28;20224;-73
2021/08/26 03:07:51;;;;;;;6.37;3.10;;;;;;;12.61;100.00;99951.47;5059905;28;20564;-72
2021/08/26 03:10:18;;;;;;;4.93;2.80;;;;;;;12.67;100.00;99944.19;5064088;28;20231;-73
2021/08/26 03:12:45;;;;;;;5.43;2.93;;;;;;;12.68;100.00;99938.06;5065352;28;20218;-72
2021/08/26 03:15:11;;;;;;;7.27;3.33;;;;;;;12.68;100.00;99945.03;5064563;28;20210;-72
2021/08/26 03:17:38;;;;;;;7.17;3.30;;;;;;;12.72;100.00;99935.28;5060884;28;20218;-72
2021/08/26 03:20:05;;;;;;;4.03;3.17;;;;;;;12.72;100.00;99940.50;5069113;28;20391;-71
2021/08/26 03:22:32;;;;;;;5.40;3.10;;;;;;;12.75;100.00;99943.00;5073387;28;20202;-73
2021/08/26 03:24:59;;;;;;;4.80;3.00;;;;;;;12.75;100.00;99938.63;5059096;28;20618;-72
2021/08/26 03:27:26;;;;;;;7.40;3.30;;;;;;;12.78;100.00;99940.25;5067351;28;20226;-73
2021/08/26 03:29:53;;;;;;;7.50;3.37;;;;;;;12.79;100.00;99932.31;5061511;28;20202;-72
2021/08/26 03:32:19;;;;;;;6.57;3.43;;;;;;;12.81;100.00;99942.72;5075153;28;20810;-73
2021/08/26 03:34:46;;;;;;;7.03;3.17;;;;;;;12.83;100.00;99936.50;5079310;28;20206;-73
2021/08/26 03:37:12;;;;;;;5.93;2.83;;;;;;;12.85;100.00;99937.25;5070369;28;20233;-73
2021/08/26 03:39:38;;;;;;;7.17;3.30;;;;;;;12.82;100.00;99937.44;5070582;28;20471;-71
2021/08/26 03:42:05;;;;;;;7.43;2.93;;;;;;;12.83;100.00;99930.41;5074959;28;20248;-73
2021/08/26 03:44:33;;;;;;;9.43;3.40;;;;;;;12.81;100.00;99929.66;5067846;28;20197;-72
2021/08/26 03:46:59;;;;;;;8.47;3.03;;;;;;;12.80;100.00;99925.31;5063829;28;20733;-72
2021/08/26 03:49:28;;;;;;;6.13;3.07;;;;;;;12.80;100.00;99926.16;5069802;28;20414;-72
2021/08/26 03:51:55;;;;;;;7.27;2.90;;;;;;;12.80;100.00;99927.94;5065260;28;20214;-73
2021/08/26 03:54:21;;;;;;;4.80;2.90;;;;;;;12.80;100.00;99925.31;5071970;28;20204;-72
2021/08/26 03:56:48;;;;;;;7.17;3.23;;;;;;;12.79;100.00;99924.47;5069265;28;20669;-72
2021/08/26 03:59:14;;;;;;;7.03;3.27;;;;;;;12.82;100.00;99928.72;5069657;28;20505;-72
2021/08/26 04:01:42;;;;;;;4.60;3.27;;;;;;;12.83;100.00;99925.19;5056537;28;20202;-72
2021/08/26 04:04:08;;;;;;;7.37;3.17;;;;;;;12.81;100.00;99921.81;5061027;28;20296;-73
2021/08/26 04:06:34;;;;;;;8.17;3.70;;;;;;;12.81;100.00;99927.88;5062270;28;20679;-73
2021/08/26 04:09:01;;;;;;;8.33;3.50;;;;;;;12.86;100.00;99923.28;5074081;28;20574;-72
2021/08/26 04:11:27;;;;;;;7.27;3.57;;;;;;;12.84;100.00;99922.50;5061503;28;20328;-73
2021/08/26 04:13:54;;;;;;;5.33;2.90;;;;;;;12.85;100.00;99920.72;5059418;28;20554;-72
2021/08/26 04:16:21;;;;;;;4.33;3.10;;;;;;;12.85;100.00;99928.56;5058885;28;20207;-72
2021/08/26 04:18:49;;;;;;;4.87;3.47;;;;;;;12.84;100.00;99919.88;5060969;28;20249;-72
2021/08/26 04:21:16;;;;;;;7.53;3.37;;;;;;;12.87;100.00;99924.97;5061107;28;20228;-73
2021/08/26 04:23:42;;;;;;;7.63;3.63;;;;;;;12.88;100.00;99923.22;5063685;28;20210;-72
2021/08/26 04:26:09;;;;;;;7.60;3.70;;;;;;;12.90;100.00;99921.34;5067726;28;20202;-73
2021/08/26 04:28:35;;;;;;;4.13;2.97;;;;;;;12.91;100.00;99917.84;5059802;28;20232;-73
2021/08/26 04:31:01;;;;;;;6.33;3.10;;;;;;;12.91;100.00;99924.81;5064529;28;20664;-72
2021/08/26 04:33:28;;;;;;;7.77;3.50;;;;;;;12.91;100.00;99922.19;5057784;28;20586;-72
2021/08/26 04:35:56;;;;;;;7.30;4.13;;;;;;;12.90;100.00;99913.50;5064759;28;20210;-72
2021/08/26 04:38:22;;;;;;;7.00;3.50;;;;;;;12.91;100.00;99907.38;5065563;28;20225;-72
2021/08/26 04:40:49;;;;;;;6.30;3.60;;;;;;;12.88;100.00;99907.50;5067142;28;20685;-72
2021/08/26 04:43:15;;;;;;;6.10;3.83;;;;;;;12.88;100.00;99910.13;5059705;28;20201;-73
2021/08/26 04:45:42;;;;;;;6.93;3.73;;;;;;;12.91;100.00;99911.72;5071335;28;20655;-72
2021/08/26 04:48:08;;;;;;;9.47;4.00;;;;;;;12.93;100.00;99904.66;5065152;28;20217;-72
2021/08/26 04:50:35;;;;;;;9.97;4.00;;;;;;;12.90;100.00;99902.22;5071250;28;20681;-72
2021/08/26 04:53:04;;;;;;;5.93;3.60;;;;;;;12.95;100.00;99908.06;5060295;28;20227;-72
2021/08/26 04:55:31;;;;;;;5.13;3.37;;;;;;;12.95;100.00;99908.91;5068201;28;20209;-72
2021/08/26 04:57:58;;;;;;;9.43;3.80;;;;;;;12.96;100.00;99905.34;5059314;28;20309;-72
2021/08/26 05:00:25;;;;;;;9.27;4.00;;;;;;;12.98;100.00;99895.69;5064451;28;20206;-72
2021/08/26 05:02:51;;;;;;;10.17;3.70;;;;;;;12.98;100.00;99890.47;5061408;28;20201;-72
2021/08/26 05:05:18;;;;;;;7.47;3.47;;;;;;;12.93;100.00;99892.44;5071295;28;20241;-72
2021/08/26 05:07:44;;;;;;;6.23;3.50;;;;;;;12.86;100.00;99894.50;5060519;28;20234;-72
2021/08/26 05:10:12;;;;;;;6.93;3.40;;;;;;;12.83;100.00;99909.50;5058747;28;20716;-73
2021/08/26 05:12:38;;;;;;;5.80;3.57;;;;;;;12.83;100.00;99907.72;5066785;28;20213;-71
2021/08/26 05:15:06;;;;;;;11.43;3.77;;;;;;;12.82;100.00;99905.16;5058869;28;20767;-72
2021/08/26 05:17:33;;;;;;;5.27;3.23;;;;;;;12.82;100.00;99902.53;5062380;28;20222;-72
2021/08/26 05:19:59;;;;;;;5.50;3.30;;;;;;;12.83;100.00;99905.09;5059756;28;20198;-73
2021/08/26 05:22:26;;;;;;;10.73;4.00;;;;;;;12.76;100.00;99908.09;5061665;28;20566;-72
2021/08/26 05:24:52;;;;;;;7.63;3.90;;;;;;;12.79;100.00;99902.72;5063986;28;20680;-73
2021/08/26 05:27:20;;;;;;;9.67;4.07;;;;;;;12.80;100.00;99907.00;5065326;28;20224;-73
2021/08/26 05:29:46;;;;;;;9.70;3.93;;;;;;;12.76;100.00;99908.91;5059859;28;20541;-73
2021/08/26 05:32:13;;;;;;;8.10;4.07;;;;;;;12.77;100.00;99909.75;5057444;28;20213;-73
2021/08/26 05:34:41;;;;;;;8.40;4.53;;;;;;;12.74;100.00;99918.63;5062465;28;20244;-73
2021/08/26 05:37:08;;;;;;;9.70;4.33;;;;;;;12.72;100.00;99916.97;5062584;28;20759;-74
2021/08/26 05:39:34;;;;;;;6.17;3.97;;;;;;;12.69;100.00;99905.75;5063996;28;20639;-74
2021/08/26 05:42:00;;;;;;;7.93;4.40;;;;;;;12.68;100.00;99916.25;5061386;28;20206;-74
2021/08/26 05:44:28;;;;;;;8.50;4.00;;;;;;;12.68;100.00;99911.03;5067143;28;20214;-74
2021/08/26 05:46:55;;;;;;;12.70;4.77;;;;;;;12.69;100.00;99915.34;5060638;28;20723;-74
2021/08/26 05:49:21;;;;;;;9.97;4.83;;;;;;;12.65;100.00;99914.66;5071432;28;20547;-74
2021/08/26 05:51:47;;;;;;;7.60;4.17;;;;;;;12.63;100.00;99908.66;5062881;28;20324;-74
2021/08/26 05:54:14;;;;;;;7.43;4.17;;;;;;;12.63;100.00;99915.66;5066892;28;20199;-74
2021/08/26 05:56:40;;;;;;;9.87;4.60;;;;;;;12.67;100.00;99911.97;5062033;28;20199;-74
2021/08/26 05:59:07;;;;;;;6.93;3.70;;;;;;;12.65;100.00;99912.03;5067412;28;20221;-74
2021/08/26 06:01:34;;;;;;;8.73;3.87;;;;;;;12.61;100.00;99920.09;5057967;28;20200;-74
2021/08/26 06:04:01;;;;;;;8.83;4.40;;;;;;;12.60;100.00;99911.41;5068271;28;20748;-74
2021/08/26 06:06:27;;;;;;;9.83;4.23;;;;;;;12.63;100.00;99919.09;5062983;28;20207;-74
2021/08/26 06:08:54;;;;;;;6.83;4.07;;;;;;;12.66;100.00;99912.88;5066446;28;20201;-74
2021/08/26 06:11:20;;;;;;;5.90;3.40;;;;;;;12.69;100.00;99912.75;5064268;28;20205;-74
2021/08/26 06:13:47;;;;;;;8.57;3.90;;;;;;;12.69;100.00;99916.19;5064465;28;20228;-74
2021/08/26 06:16:13;;;;;;;7.80;4.20;;;;;;;12.67;100.00;99917.19;5066063;28;20200;-74
2021/08/26 06:18:41;;;;;;;5.13;3.03;;;;;;;12.68;100.00;99919.75;5071158;28;20230;-74
2021/08/26 06:21:09;;;;;;;12.20;3.30;;;;;;;12.66;100.00;99918.97;5065970;28;20206;-74
2021/08/26 06:23:35;;;;;;;10.93;3.87;;;;;;;12.63;100.00;99924.34;5062013;28;20212;-74
2021/08/26 06:26:02;;;;;;;6.87;3.57;;;;;;;12.63;100.00;99926.13;5066577;28;20292;-74
2021/08/26 06:28:28;;;;;;;8.03;3.57;;;;;;;12.61;100.00;99933.16;5063414;28;20620;-74
2021/08/26 06:30:55;;;;;;;8.40;3.83;;;;;;;12.57;100.00;99937.69;5065850;28;20233;-74
2021/08/26 06:33:21;;;;;;;6.37;3.50;;;;;;;12.63;100.00;99936.56;5061657;28;20583;-74
2021/08/26 06:35:49;;;;;;;5.33;3.20;;;;;;;12.62;100.00;99935.72;5058110;28;20199;-74
2021/08/26 06:38:15;;;;;;;7.03;3.30;;;;;;;12.66;100.00;99939.91;5065725;28;20407;-74
2021/08/26 06:40:42;;;;;;;6.23;3.40;;;;;;;12.66;100.00;99936.41;5063882;28;20196;-74
2021/08/26 06:43:08;;;;;;;9.13;3.90;;;;;;;12.72;100.00;99948.34;5067891;28;20205;-74
2021/08/26 06:45:35;;;;;;;8.43;4.17;;;;;;;12.71;100.00;99950.13;5067663;28;20573;-74
2021/08/26 06:48:01;;;;;;;10.60;4.30;;;;;;;12.79;100.00;99947.19;5069699;28;20222;-74
2021/08/26 06:50:28;;;;;;;6.90;4.30;;;;;;;12.79;100.00;99950.63;5062604;28;20489;-74
2021/08/26 06:52:55;;;;;;;7.93;4.57;;;;;;;12.84;100.00;99953.91;5079245;28;20220;-74
2021/08/26 06:55:22;;;;;;;8.83;4.73;;;;;;;12.88;100.00;99957.22;5062453;28;20684;-74
2021/08/26 06:57:48;;;;;;;10.20;4.80;;;;;;;12.95;100.00;99950.78;5066464;28;20313;-74
2021/08/26 07:00:15;;;;;;;10.57;5.20;;;;;;;12.94;100.00;99950.84;5065184;28;20203;-74
2021/08/26 07:02:42;;;;;;;8.80;4.57;;;;;;;12.96;100.00;99960.31;5059180;28;20191;-74
2021/08/26 07:05:09;;;;;;;11.30;5.10;;;;;;;13.01;100.00;99962.72;5066242;28;20230;-74
2021/08/26 07:07:35;;;;;;;9.57;4.80;;;;;;;13.08;100.00;99954.50;5066885;28;20227;-74
2021/08/26 07:10:04;;;;;;;9.83;4.53;;;;;;;13.08;100.00;99959.72;5064355;28;20203;-74
2021/08/26 07:12:31;;;;;;;13.17;4.73;;;;;;;13.11;100.00;99957.91;5070058;28;20430;-74
2021/08/26 07:14:58;;;;;;;13.27;4.60;;;;;;;13.18;100.00;99960.16;5060115;28;20206;-74
2021/08/26 07:17:25;;;;;;;9.60;4.27;;;;;;;13.19;100.00;99961.88;5063614;28;20248;-74
2021/08/26 07:19:51;;;;;;;9.10;4.37;;;;;;;13.22;100.00;99956.47;5062984;28;20207;-74
2021/08/26 07:22:18;;;;;;;12.03;4.50;;;;;;;13.23;100.00;99954.72;5062781;28;20212;-74
2021/08/26 07:24:45;;;;;;;13.03;5.37;;;;;;;13.18;100.00;99959.31;5063616;28;20199;-74
2021/08/26 07:27:13;;;;;;;10.63;4.97;;;;;;;13.25;100.00;99964.19;5062242;28;20653;-74
2021/08/26 07:29:39;;;;;;;8.70;5.00;;;;;;;13.29;100.00;99951.78;5057916;28;20193;-74
2021/08/26 07:32:06;;;;;;;11.57;5.43;;;;;;;13.58;100.00;99952.19;5060611;28;20224;-74
2021/08/26 07:34:33;;;;;;;14.93;6.13;;;;;;;13.79;100.00;99958.09;5066782;28;20207;-74
2021/08/26 07:36:59;;;;;;;13.23;6.47;;;;;;;14.01;100.00;99953.47;5069456;28;20519;-74
2021/08/26 07:39:28;;;;;;;12.53;6.13;;;;;;;14.11;100.00;99951.25;5063868;28;20218;-74
2021/08/26 07:41:54;;;;;;;13.63;5.70;;;;;;;14.23;100.00;99952.41;5064452;28;20230;-74
2021/08/26 07:44:22;;;;;;;11.20;5.70;;;;;;;14.37;100.00;99949.03;5066451;28;20782;-74
2021/08/26 07:46:48;;;;;;;11.17;5.70;;;;;;;14.43;100.00;99951.34;5067207;28;20226;-74
2021/08/26 07:49:14;;;;;;;12.93;5.80;;;;;;;14.64;100.00;99957.25;5065151;28;20262;-74
2021/08/26 07:51:41;;;;;;;10.73;5.77;;;;;;;14.68;100.00;99964.03;5064341;28;20209;-74
2021/08/26 07:54:07;;;;;;;12.00;5.60;;;;;;;14.63;100.00;99959.97;5069547;28;20332;-76
2021/08/26 07:56:35;;;;;;;11.70;5.03;;;;;;;14.61;100.00;99965.28;5066456;28;20201;-74
2021/08/26 07:59:01;;;;;;;11.17;4.77;;;;;;;14.47;100.00;99965.16;5064704;28;20198;-74
2021/08/26 08:01:29;;;;;;;12.63;4.47;;;;;;;14.47;100.00;99960.72;5066991;28;20242;-74
2021/08/26 08:03:56;;;;;;;8.53;4.30;;;;;;;14.36;100.00;99963.94;5065964;28;20218;-74
2021/08/26 08:06:23;;;;;;;11.80;4.83;;;;;;;14.32;100.00;99962.41;5067949;28;20295;-74
2021/08/26 08:08:50;;;;;;;7.90;4.47;;;;;;;14.24;100.00;99974.22;5074312;28;20685;-74
2021/08/26 08:11:17;;;;;;;6.50;3.57;;;;;;;14.17;100.00;99963.19;5066913;28;20361;-74
2021/08/26 08:13:43;;;;;;;7.30;4.30;;;;;;;14.22;100.00;99966.44;5062834;28;20666;-74
2021/08/26 08:16:11;;;;;;;8.07;4.07;;;;;;;14.31;100.00;99957.25;5066332;28;20229;-74
2021/08/26 08:18:39;;;;;;;7.93;4.50;;;;;;;14.44;100.00;99955.69;5066283;28;20709;-74
2021/08/26 08:21:06;;;;;;;9.93;4.50;;;;;;;14.61;100.00;99956.56;5065532;28;20594;-74
2021/08/26 08:23:32;;;;;;;7.87;4.27;;;;;;;14.72;100.00;99959.47;5067844;28;20729;-74
2021/08/26 08:25:59;;;;;;;8.77;4.33;;;;;;;14.71;100.00;99948.13;5067504;28;20473;-74
2021/08/26 08:28:25;;;;;;;6.77;4.03;;;;;;;14.89;100.00;99951.53;5066994;28;20236;-74
2021/08/26 08:30:52;;;;;;;9.00;4.10;;;;;;;14.97;100.00;99945.88;5072491;28;20196;-74
2021/08/26 08:33:18;;;;;;;5.43;4.03;;;;;;;15.34;100.00;99946.44;5065589;28;20228;-74
2021/08/26 08:35:46;;;;;;;7.00;3.67;;;;;;;15.38;100.00;99947.09;5063270;28;20555;-74
2021/08/26 08:38:13;;;;;;;8.13;3.73;;;;;;;15.73;100.00;99942.44;5062715;28;20316;-73
2021/08/26 08:40:39;;;;;;;7.83;3.33;;;;;;;15.77;100.00;99941.34;5062988;28;20203;-73
2021/08/26 08:43:06;;;;;;;7.67;3.10;;;;;;;15.63;100.00;99946.53;5065856;28;20260;-74
2021/08/26 08:45:32;;;;;;;6.70;2.80;;;;;;;15.70;100.00;99943.44;5062865;28;20221;-74
2021/08/26 08:47:59;;;;;;;5.47;3.17;;;;;;;15.80;100.00;99943.81;5073587;28;20236;-73
2021/08/26 08:50:27;;;;;;;5.97;3.17;;;;;;;15.60;100.00;99944.94;5058963;28;20646;-73
2021/08/26 08:52:55;;;;;;;5.93;2.70;;;;;;;15.53;100.00;99948.84;5058789;28;20718;-73
2021/08/26 08:55:22;;;;;;;4.60;2.53;;;;;;;15.37;100.00;99950.66;5063446;28;20742;-73
2021/08/26 08:57:48;;;;;;;6.67;2.70;;;;;;;15.28;100.00;99947.59;5064387;28;20221;-73
2021/08/26 09:00:17;;;;;;;4.63;2.60;;;;;;;15.17;100.00;99946.53;5062315;28;20624;-73
2021/08/26 09:02:44;;;;;;;6.47;3.20;;;;;;;15.29;100.00;99945.84;5056905;28;20206;-73
2021/08/26 09:05:11;;;;;;;7.07;3.07;;;;;;;15.50;100.00;99954.28;5065489;28;20213;-73
2021/08/26 09:07:38;;;;;;;9.97;3.40;;;;;;;15.85;100.00;99943.56;5061944;28;20309;-73
2021/08/26 09:10:08;;;;;;;7.90;2.83;;;;;;;16.02;99.80;99958.31;5057694;28;20193;-73
2021/08/26 09:12:45;;;;;;;6.93;2.83;;;;;;;16.18;98.47;99947.72;5061650;28;20635;-73
2021/08/26 09:15:13;;;;;;;5.47;2.97;;;;;;;16.47;99.48;99949.41;5065412;28;20293;-73
2021/08/26 09:17:40;;;;;;;3.93;2.43;;;;;;;16.74;95.15;99958.34;5061562;28;20555;-73
2021/08/26 09:20:09;;;;;;;4.87;2.40;;;;;;;16.69;94.83;99948.09;5061582;28;20574;-73
2021/08/26 09:22:36;;;;;;;6.50;2.50;;;;;;;16.30;90.91;99949.59;5058502;28;20365;-73
2021/08/26 09:25:04;;;;;;;4.50;2.30;;;;;;;16.11;92.85;99955.13;5058911;28;20199;-73
2021/08/26 09:27:40;;;;;;;5.57;2.40;;;;;;;15.90;90.67;99965.16;5063767;28;20487;-73
2021/08/26 09:30:10;;;;;;;3.50;1.40;;;;;;;15.71;88.20;99968.81;5058478;28;20304;-73
2021/08/26 09:32:37;;;;;;;3.13;1.30;;;;;;;15.80;87.78;99967.47;5061457;28;20657;-73
2021/08/26 09:35:16;;;;;;;2.10;1.27;;;;;;;15.87;87.46;99968.78;5064605;28;20252;-73
2021/08/26 09:37:44;;;;;;;2.07;1.20;;;;;;;15.70;87.39;99972.34;5056506;28;20222;-73
2021/08/26 09:40:12;;;;;;;0.60;0.60;;;;;;;15.50;85.87;99970.88;5059936;28;20253;-73
2021/08/26 09:42:40;;;;;;;0.80;0.67;;;;;;;15.25;87.68;99974.06;5057557;28;20578;-73
2021/08/26 09:45:21;;;;;;;0.90;0.80;;;;;;;15.01;92.60;99965.75;5063167;28;20203;-73
2021/08/26 09:47:58;;;;;;;1.80;0.97;;;;;;;14.90;96.99;99960.25;5070099;28;20317;-73
2021/08/26 09:50:42;;;;;;;1.70;0.90;;;;;;;14.87;97.90;99952.56;5059579;28;20543;-73
2021/08/26 09:53:09;;;;;;;2.13;1.13;;;;;;;14.77;100.00;99954.81;5063950;28;20730;-73
2021/08/26 09:55:54;;;;;;;2.27;1.30;;;;;;;14.70;100.00;99956.91;5062329;28;20206;-73
2021/08/26 09:58:23;;;;;;;4.50;1.80;;;;;;;14.61;100.00;99959.19;5061138;28;20309;-73
2021/08/26 10:00:50;;;;;;;2.30;1.17;;;;;;;14.61;100.00;99953.97;5060311;28;20300;-73
2021/08/26 10:03:16;;;;;;;2.70;1.40;;;;;;;14.87;100.00;99950.75;5059831;28;20642;-73
2021/08/26 10:05:45;;;;;;;4.20;1.50;;;;;;;15.15;100.00;99946.63;5063012;28;20185;-73
2021/08/26 10:08:13;;;;;;;5.63;1.80;;;;;;;15.39;98.25;99946.16;5064413;28;20220;-73
2021/08/26 10:10:40;;;;;;;4.27;1.77;;;;;;;15.56;98.02;99947.84;5060885;28;20199;-73
2021/08/26 10:13:07;;;;;;;5.03;1.70;;;;;;;15.66;95.48;99949.84;5056760;28;20213;-73
2021/08/26 10:15:38;;;;;;;3.50;1.77;;;;;;;15.94;95.62;99947.41;5060945;28;20215;-73
2021/08/26 10:18:05;;;;;;;4.20;1.77;;;;;;;16.28;97.25;99941.81;5063634;28;20541;-73
2021/08/26 10:20:31;;;;;;;4.30;1.63;;;;;;;16.50;92.95;99945.78;5061332;28;20576;-73
2021/08/26 10:22:58;;;;;;;2.23;1.80;;;;;;;16.72;91.69;99954.97;5065355;28;20221;-73
2021/08/26 10:25:25;;;;;;;4.77;1.87;;;;;;;16.88;88.73;99947.81;5065967;28;20723;-73
2021/08/26 10:27:52;;;;;;;3.47;1.83;;;;;;;16.94;91.61;99936.91;5066874;28;20230;-73
2021/08/26 10:30:29;;;;;;;4.87;1.63;;;;;;;16.96;88.99;99948.19;5058885;28;20280;-73
2021/08/26 10:33:07;;;;;;;3.57;1.40;;;;;;;16.84;78.00;99962.97;5067190;28;20198;-73
2021/08/26 10:35:35;;;;;;;1.63;0.70;;;;;;;16.64;72.35;99979.13;5066994;28;20387;-73
2021/08/26 10:38:01;;;;;;;1.07;0.80;;;;;;;16.88;72.84;99970.69;5062807;28;20231;-73
2021/08/26 10:40:31;;;;;;;1.63;0.70;;;;;;;17.20;71.54;99972.13;5070772;28;20199;-73
2021/08/26 10:42:58;;;;;;;2.07;0.90;;;;;;;17.56;71.61;99969.84;5064312;28;20203;-73
2021/08/26 10:45:26;;;;;;;3.70;0.90;;;;;;;17.84;75.50;99954.81;5068274;28;20659;-73
2021/08/26 10:48:16;;;;;;;1.50;1.00;;;;;;;17.65;76.54;99958.66;5059090;28;20230;-73
2021/08/26 10:50:46;;;;;;;3.27;1.17;;;;;;;17.17;80.42;99951.25;5064418;28;20226;-73
2021/08/26 10:53:16;;;;;;;2.93;1.40;;;;;;;17.05;82.13;99941.50;5067153;28;20280;-73
2021/08/26 10:55:45;;;;;;;1.50;1.20;;;;;;;17.06;81.25;99948.44;5067874;28;20203;-73
2021/08/26 10:58:36;;;;;;;2.23;1.57;;;;;;;17.35;85.15;99935.19;5060617;28;20236;-73
2021/08/26 11:01:04;;;;;;;3.10;1.30;;;;;;;17.55;80.27;99953.19;5065812;28;20674;-73
2021/08/26 11:03:59;;;;;;;2.83;1.30;;;;;;;17.65;78.40;99966.59;5065548;28;20205;-73
2021/08/26 11:06:42;;;;;;;2.50;1.20;;;;;;;17.73;76.96;99973.97;5074887;28;20222;-73
2021/08/26 11:09:42;;;;;;;2.63;1.30;;;;;;;17.77;78.93;99963.13;5064214;28;20195;-73
2021/08/26 11:12:27;;;;;;;1.90;1.10;;;;;;;17.74;74.42;99978.31;5073658;28;20194;-73
2021/08/26 11:14:59;;;;;;;2.67;1.13;;;;;;;17.77;73.75;99971.03;5062423;28;20223;-73
2021/08/26 11:17:35;;;;;;;1.50;0.83;;;;;;;18.05;74.16;99971.03;5067240;28;20591;-73
2021/08/26 11:20:32;;;;;;;1.90;0.77;;;;;;;18.00;70.26;99984.50;5055933;28;20298;-73
2021/08/26 11:23:02;;;;;;;2.10;0.80;;;;;;;18.06;70.60;99980.63;5062080;28;20272;-73
2021/08/26 11:25:29;;;;;;;2.60;1.00;;;;;;;18.10;67.08;99993.50;5058582;28;20630;-73
2021/08/26 11:28:28;;;;;;;1.53;0.73;;;;;;;18.06;69.09;99981.44;5076120;28;20721;-73
2021/08/26 11:31:13;;;;;;;2.80;1.00;;;;;;;18.03;70.06;99983.44;5070791;28;20206;-73